sensor_id;sensor_type;location;lat;lon;timestamp;temperature;humidity
3256;DHT22;1640;48.504;9.224;2023-01-30T00:01:58;-2.60;99.90
3256;DHT22;1640;48.504;9.224;2023-01-30T00:04:25;-2.60;99.90
3256;DHT22;1640;48.504;9.224;2023-01-30T00:06:52;-2.70;99.90
3256;DHT22;1640;48.504;9.224;2023-01-30T00:09:20;-2.70;99.90
3256;DHT22;1640;48.504;9.224;2023-01-30T00:11:47;-2.70;99.90
3256;DHT22;1640;48.504;9.224;2023-01-30T00:14:16;-2.70;99.90
3256;DHT22;1640;48.504;9.224;2023-01-30T00:16:43;-2.80;99.90
3256;DHT22;1640;48.504;9.224;2023-01-30T00:19:11;-2.80;99.90
3256;DHT22;1640;48.504;9.224;2023-01-30T00:21:38;-2.80;99.90
3256;DHT22;1640;48.504;9.224;2023-01-30T00:24:06;-2.80;99.90
3256;DHT22;1640;48.504;9.224;2023-01-30T00:26:34;-2.80;99.90
3256;DHT22;1640;48.504;9.224;2023-01-30T00:29:01;-2.80;99.90
3256;DHT22;1640;48.504;9.224;2023-01-30T00:31:30;-2.80;99.90
3256;DHT22;1640;48.504;9.224;2023-01-30T00:33:57;-2.90;99.90
3256;DHT22;1640;48.504;9.224;2023-01-30T00:36:25;-3.00;99.90
3256;DHT22;1640;48.504;9.224;2023-01-30T00:38:55;-3.00;99.90
3256;DHT22;1640;48.504;9.224;2023-01-30T00:41:22;-3.00;99.90
3256;DHT22;1640;48.504;9.224;2023-01-30T00:44:10;-3.00;99.90
3256;DHT22;1640;48.504;9.224;2023-01-30T00:46:56;-3.00;99.90
3256;DHT22;1640;48.504;9.224;2023-01-30T00:49:34;-3.10;99.90
3256;DHT22;1640;48.504;9.224;2023-01-30T00:52:01;-3.00;99.90
3256;DHT22;1640;48.504;9.224;2023-01-30T00:54:29;-3.00;99.90
3256;DHT22;1640;48.504;9.224;2023-01-30T00:56:56;-3.00;99.90
3256;DHT22;1640;48.504;9.224;2023-01-30T00:59:24;-3.00;99.90
3256;DHT22;1640;48.504;9.224;2023-01-30T01:01:51;-3.00;99.90
3256;DHT22;1640;48.504;9.224;2023-01-30T01:04:20;-3.10;99.90
3256;DHT22;1640;48.504;9.224;2023-01-30T01:06:48;-3.10;99.90
3256;DHT22;1640;48.504;9.224;2023-01-30T01:09:15;-3.10;99.90
3256;DHT22;1640;48.504;9.224;2023-01-30T01:11:43;-3.10;99.90
3256;DHT22;1640;48.504;9.224;2023-01-30T01:14:10;-3.00;99.90
3256;DHT22;1640;48.504;9.224;2023-01-30T01:16:38;-3.10;99.90
3256;DHT22;1640;48.504;9.224;2023-01-30T01:19:05;-3.10;99.90
3256;DHT22;1640;48.504;9.224;2023-01-30T01:21:34;-3.10;99.90
3256;DHT22;1640;48.504;9.224;2023-01-30T01:24:02;-3.00;99.90
3256;DHT22;1640;48.504;9.224;2023-01-30T01:26:29;-3.10;99.90
3256;DHT22;1640;48.504;9.224;2023-01-30T01:28:58;-3.10;99.90
3256;DHT22;1640;48.504;9.224;2023-01-30T01:31:25;-3.00;99.90
3256;DHT22;1640;48.504;9.224;2023-01-30T01:33:53;-3.00;99.90
3256;DHT22;1640;48.504;9.224;2023-01-30T01:36:20;-2.90;99.90
3256;DHT22;1640;48.504;9.224;2023-01-30T01:38:49;-2.80;99.90
3256;DHT22;1640;48.504;9.224;2023-01-30T01:41:17;-2.90;99.90
3256;DHT22;1640;48.504;9.224;2023-01-30T01:44:02;-3.00;99.90
3256;DHT22;1640;48.504;9.224;2023-01-30T01:46:32;-3.00;99.90
3256;DHT22;1640;48.504;9.224;2023-01-30T01:49:03;-3.00;99.90
3256;DHT22;1640;48.504;9.224;2023-01-30T01:51:35;-2.90;99.90
3256;DHT22;1640;48.504;9.224;2023-01-30T01:54:10;-2.90;99.90
3256;DHT22;1640;48.504;9.224;2023-01-30T01:56:42;-2.90;99.90
3256;DHT22;1640;48.504;9.224;2023-01-30T01:59:15;-2.90;99.90
3256;DHT22;1640;48.504;9.224;2023-01-30T02:01:45;-2.70;99.90
3256;DHT22;1640;48.504;9.224;2023-01-30T02:04:13;-2.80;99.90
3256;DHT22;1640;48.504;9.224;2023-01-30T02:07:01;-2.70;99.90
3256;DHT22;1640;48.504;9.224;2023-01-30T02:09:30;-2.70;99.90
3256;DHT22;1640;48.504;9.224;2023-01-30T02:12:00;-2.70;99.90
3256;DHT22;1640;48.504;9.224;2023-01-30T02:14:29;-2.50;99.90
3256;DHT22;1640;48.504;9.224;2023-01-30T02:16:57;-2.60;99.90
3256;DHT22;1640;48.504;9.224;2023-01-30T02:19:33;-2.50;99.90
3256;DHT22;1640;48.504;9.224;2023-01-30T02:22:27;-2.40;99.90
3256;DHT22;1640;48.504;9.224;2023-01-30T02:31:21;-2.30;99.90
3256;DHT22;1640;48.504;9.224;2023-01-30T02:33:56;-2.30;99.90
3256;DHT22;1640;48.504;9.224;2023-01-30T02:36:32;-2.00;99.90
3256;DHT22;1640;48.504;9.224;2023-01-30T02:39:08;-2.00;99.90
3256;DHT22;1640;48.504;9.224;2023-01-30T02:41:45;-1.90;99.90
3256;DHT22;1640;48.504;9.224;2023-01-30T02:44:17;-2.00;2.90
3256;DHT22;1640;48.504;9.224;2023-01-30T02:46:52;-2.00;4.30
3256;DHT22;1640;48.504;9.224;2023-01-30T02:49:25;-2.00;4.50
3256;DHT22;1640;48.504;9.224;2023-01-30T02:51:57;-2.10;4.10
3256;DHT22;1640;48.504;9.224;2023-01-30T02:54:26;-2.10;3.50
3256;DHT22;1640;48.504;9.224;2023-01-30T02:56:57;-2.10;2.00
3256;DHT22;1640;48.504;9.224;2023-01-30T02:59:28;-2.10;99.90
3256;DHT22;1640;48.504;9.224;2023-01-30T03:02:22;-2.00;99.90
3256;DHT22;1640;48.504;9.224;2023-01-30T03:08:06;-2.00;99.90
3256;DHT22;1640;48.504;9.224;2023-01-30T03:10:42;-2.00;99.90
3256;DHT22;1640;48.504;9.224;2023-01-30T03:13:19;-2.00;99.90
3256;DHT22;1640;48.504;9.224;2023-01-30T03:15:53;-2.00;99.90
3256;DHT22;1640;48.504;9.224;2023-01-30T03:18:23;-2.00;0.50
3256;DHT22;1640;48.504;9.224;2023-01-30T03:20:50;-2.10;99.90
3256;DHT22;1640;48.504;9.224;2023-01-30T03:23:18;-2.10;99.90
3256;DHT22;1640;48.504;9.224;2023-01-30T03:25:47;-2.10;99.90
3256;DHT22;1640;48.504;9.224;2023-01-30T03:28:17;-2.20;99.90
3256;DHT22;1640;48.504;9.224;2023-01-30T03:30:45;-2.20;99.90
3256;DHT22;1640;48.504;9.224;2023-01-30T03:33:13;-2.20;99.90
3256;DHT22;1640;48.504;9.224;2023-01-30T03:35:42;-2.20;99.90
3256;DHT22;1640;48.504;9.224;2023-01-30T03:38:09;-2.10;99.90
3256;DHT22;1640;48.504;9.224;2023-01-30T03:40:37;-2.10;99.90
3256;DHT22;1640;48.504;9.224;2023-01-30T03:43:05;-2.10;99.90
3256;DHT22;1640;48.504;9.224;2023-01-30T03:45:32;-2.10;99.90
3256;DHT22;1640;48.504;9.224;2023-01-30T03:48:00;-2.00;99.90
3256;DHT22;1640;48.504;9.224;2023-01-30T03:50:27;-1.90;99.90
3256;DHT22;1640;48.504;9.224;2023-01-30T03:52:56;-1.80;99.90
3256;DHT22;1640;48.504;9.224;2023-01-30T03:55:24;-1.70;99.90
3256;DHT22;1640;48.504;9.224;2023-01-30T03:57:54;-1.70;99.90
3256;DHT22;1640;48.504;9.224;2023-01-30T04:00:23;-1.60;99.90
3256;DHT22;1640;48.504;9.224;2023-01-30T04:02:50;-1.60;99.90
3256;DHT22;1640;48.504;9.224;2023-01-30T04:05:20;-1.40;99.90
3256;DHT22;1640;48.504;9.224;2023-01-30T04:07:47;-1.30;1.80
3256;DHT22;1640;48.504;9.224;2023-01-30T04:10:17;-1.30;4.80
3256;DHT22;1640;48.504;9.224;2023-01-30T04:12:45;-1.30;6.50
3256;DHT22;1640;48.504;9.224;2023-01-30T04:15:12;-1.30;6.40
3256;DHT22;1640;48.504;9.224;2023-01-30T04:17:41;-1.20;8.90
3256;DHT22;1640;48.504;9.224;2023-01-30T04:20:10;-1.20;8.40
3256;DHT22;1640;48.504;9.224;2023-01-30T04:22:37;-1.20;11.20
3256;DHT22;1640;48.504;9.224;2023-01-30T04:25:05;-1.20;9.00
3256;DHT22;1640;48.504;9.224;2023-01-30T04:27:34;-1.30;8.20
3256;DHT22;1640;48.504;9.224;2023-01-30T04:30:01;-1.30;5.70
3256;DHT22;1640;48.504;9.224;2023-01-30T04:32:29;-1.30;4.50
3256;DHT22;1640;48.504;9.224;2023-01-30T04:34:56;-1.20;4.10
3256;DHT22;1640;48.504;9.224;2023-01-30T04:37:23;-1.10;6.50
3256;DHT22;1640;48.504;9.224;2023-01-30T04:39:51;-1.30;6.70
3256;DHT22;1640;48.504;9.224;2023-01-30T04:42:18;-1.30;6.70
3256;DHT22;1640;48.504;9.224;2023-01-30T04:44:47;-1.30;6.10
3256;DHT22;1640;48.504;9.224;2023-01-30T04:47:16;-1.30;6.50
3256;DHT22;1640;48.504;9.224;2023-01-30T04:49:43;-1.30;7.10
3256;DHT22;1640;48.504;9.224;2023-01-30T04:52:11;-1.30;5.00
3256;DHT22;1640;48.504;9.224;2023-01-30T04:54:38;-1.30;7.30
3256;DHT22;1640;48.504;9.224;2023-01-30T04:57:06;-1.30;8.30
3256;DHT22;1640;48.504;9.224;2023-01-30T04:59:33;-1.30;10.60
3256;DHT22;1640;48.504;9.224;2023-01-30T05:02:02;-1.30;10.40
3256;DHT22;1640;48.504;9.224;2023-01-30T05:04:29;-1.30;9.40
3256;DHT22;1640;48.504;9.224;2023-01-30T05:06:57;-1.30;11.50
3256;DHT22;1640;48.504;9.224;2023-01-30T05:09:24;-1.40;10.20
3256;DHT22;1640;48.504;9.224;2023-01-30T05:11:52;-1.30;9.80
3256;DHT22;1640;48.504;9.224;2023-01-30T05:14:19;-1.30;12.60
3256;DHT22;1640;48.504;9.224;2023-01-30T05:16:47;-1.20;13.40
3256;DHT22;1640;48.504;9.224;2023-01-30T05:19:15;-1.10;15.00
3256;DHT22;1640;48.504;9.224;2023-01-30T05:21:43;-1.10;17.40
3256;DHT22;1640;48.504;9.224;2023-01-30T05:24:10;-1.00;19.60
3256;DHT22;1640;48.504;9.224;2023-01-30T05:26:38;-1.00;23.90
3256;DHT22;1640;48.504;9.224;2023-01-30T05:29:05;-0.90;24.60
3256;DHT22;1640;48.504;9.224;2023-01-30T05:31:33;-0.90;28.60
3256;DHT22;1640;48.504;9.224;2023-01-30T05:34:00;-0.90;27.40
3256;DHT22;1640;48.504;9.224;2023-01-30T05:36:29;-1.00;27.10
3256;DHT22;1640;48.504;9.224;2023-01-30T05:38:57;-0.90;31.80
3256;DHT22;1640;48.504;9.224;2023-01-30T05:41:24;-0.80;34.30
3256;DHT22;1640;48.504;9.224;2023-01-30T05:43:52;-0.80;35.40
3256;DHT22;1640;48.504;9.224;2023-01-30T05:46:19;-0.80;39.20
3256;DHT22;1640;48.504;9.224;2023-01-30T05:48:46;-0.80;38.80
3256;DHT22;1640;48.504;9.224;2023-01-30T05:51:15;-0.70;39.90
3256;DHT22;1640;48.504;9.224;2023-01-30T05:53:44;-0.70;42.10
3256;DHT22;1640;48.504;9.224;2023-01-30T05:56:12;-0.60;45.20
3256;DHT22;1640;48.504;9.224;2023-01-30T05:58:40;-0.70;47.90
3256;DHT22;1640;48.504;9.224;2023-01-30T06:01:11;-0.60;50.40
3256;DHT22;1640;48.504;9.224;2023-01-30T06:03:39;-0.40;54.40
3256;DHT22;1640;48.504;9.224;2023-01-30T06:06:06;-0.50;56.60
3256;DHT22;1640;48.504;9.224;2023-01-30T06:08:34;-0.50;58.80
3256;DHT22;1640;48.504;9.224;2023-01-30T06:11:04;-0.40;60.40
3256;DHT22;1640;48.504;9.224;2023-01-30T06:13:32;-0.30;63.20
3256;DHT22;1640;48.504;9.224;2023-01-30T06:15:59;-0.30;67.60
3256;DHT22;1640;48.504;9.224;2023-01-30T06:18:27;-0.20;67.00
3256;DHT22;1640;48.504;9.224;2023-01-30T06:20:54;-0.20;67.50
3256;DHT22;1640;48.504;9.224;2023-01-30T06:23:22;-0.10;70.80
3256;DHT22;1640;48.504;9.224;2023-01-30T06:25:51;0.00;73.10
3256;DHT22;1640;48.504;9.224;2023-01-30T06:28:20;0.10;75.40
3256;DHT22;1640;48.504;9.224;2023-01-30T06:30:48;0.10;76.20
3256;DHT22;1640;48.504;9.224;2023-01-30T06:33:16;0.30;76.70
3256;DHT22;1640;48.504;9.224;2023-01-30T06:35:43;0.30;77.80
3256;DHT22;1640;48.504;9.224;2023-01-30T06:38:11;0.40;78.40
3256;DHT22;1640;48.504;9.224;2023-01-30T06:40:40;0.50;79.50
3256;DHT22;1640;48.504;9.224;2023-01-30T06:43:07;0.50;80.20
3256;DHT22;1640;48.504;9.224;2023-01-30T06:45:36;0.40;80.10
3256;DHT22;1640;48.504;9.224;2023-01-30T06:48:04;0.40;80.10
3256;DHT22;1640;48.504;9.224;2023-01-30T06:50:32;0.40;79.80
3256;DHT22;1640;48.504;9.224;2023-01-30T06:53:01;0.40;79.10
3256;DHT22;1640;48.504;9.224;2023-01-30T06:55:30;0.40;77.70
3256;DHT22;1640;48.504;9.224;2023-01-30T06:58:04;0.30;76.50
3256;DHT22;1640;48.504;9.224;2023-01-30T07:00:32;0.20;75.10
3256;DHT22;1640;48.504;9.224;2023-01-30T07:03:01;0.10;74.40
3256;DHT22;1640;48.504;9.224;2023-01-30T07:05:28;0.00;73.80
3256;DHT22;1640;48.504;9.224;2023-01-30T07:07:56;0.00;72.20
3256;DHT22;1640;48.504;9.224;2023-01-30T07:10:24;0.10;74.50
3256;DHT22;1640;48.504;9.224;2023-01-30T07:12:52;0.10;74.20
3256;DHT22;1640;48.504;9.224;2023-01-30T07:15:19;0.20;73.90
3256;DHT22;1640;48.504;9.224;2023-01-30T07:17:47;0.20;74.80
3256;DHT22;1640;48.504;9.224;2023-01-30T07:20:16;0.20;75.60
3256;DHT22;1640;48.504;9.224;2023-01-30T07:22:48;0.20;75.20
3256;DHT22;1640;48.504;9.224;2023-01-30T07:25:16;0.20;74.60
3256;DHT22;1640;48.504;9.224;2023-01-30T07:27:49;0.20;75.20
3256;DHT22;1640;48.504;9.224;2023-01-30T07:30:17;0.20;74.20
3256;DHT22;1640;48.504;9.224;2023-01-30T07:32:48;0.20;73.10
3256;DHT22;1640;48.504;9.224;2023-01-30T07:35:17;0.30;73.80
3256;DHT22;1640;48.504;9.224;2023-01-30T07:37:45;0.30;73.80
3256;DHT22;1640;48.504;9.224;2023-01-30T07:40:13;0.40;73.60
3256;DHT22;1640;48.504;9.224;2023-01-30T07:42:40;0.40;74.50
3256;DHT22;1640;48.504;9.224;2023-01-30T07:45:09;0.50;74.80
3256;DHT22;1640;48.504;9.224;2023-01-30T07:47:37;0.60;74.50
3256;DHT22;1640;48.504;9.224;2023-01-30T07:50:05;0.70;74.80
3256;DHT22;1640;48.504;9.224;2023-01-30T07:52:34;0.80;75.80
3256;DHT22;1640;48.504;9.224;2023-01-30T07:55:02;1.00;76.90
3256;DHT22;1640;48.504;9.224;2023-01-30T07:57:29;1.10;77.40
3256;DHT22;1640;48.504;9.224;2023-01-30T07:59:57;1.10;77.50
3256;DHT22;1640;48.504;9.224;2023-01-30T08:02:24;1.20;78.10
3256;DHT22;1640;48.504;9.224;2023-01-30T08:04:51;1.30;77.40
3256;DHT22;1640;48.504;9.224;2023-01-30T08:07:19;1.40;77.20
3256;DHT22;1640;48.504;9.224;2023-01-30T08:09:48;1.50;78.20
3256;DHT22;1640;48.504;9.224;2023-01-30T08:12:15;1.60;77.70
3256;DHT22;1640;48.504;9.224;2023-01-30T08:14:42;1.60;76.70
3256;DHT22;1640;48.504;9.224;2023-01-30T08:17:10;1.70;77.10
3256;DHT22;1640;48.504;9.224;2023-01-30T08:19:37;1.80;75.80
3256;DHT22;1640;48.504;9.224;2023-01-30T08:22:04;1.80;77.10
3256;DHT22;1640;48.504;9.224;2023-01-30T08:24:32;1.90;76.80
3256;DHT22;1640;48.504;9.224;2023-01-30T08:27:01;1.90;76.80
3256;DHT22;1640;48.504;9.224;2023-01-30T08:29:28;2.00;75.80
3256;DHT22;1640;48.504;9.224;2023-01-30T08:31:56;2.00;74.50
3256;DHT22;1640;48.504;9.224;2023-01-30T08:34:24;2.00;72.80
3256;DHT22;1640;48.504;9.224;2023-01-30T08:36:51;2.10;71.60
3256;DHT22;1640;48.504;9.224;2023-01-30T08:39:19;2.10;71.50
3256;DHT22;1640;48.504;9.224;2023-01-30T08:41:46;2.10;72.80
3256;DHT22;1640;48.504;9.224;2023-01-30T08:44:15;2.20;73.80
3256;DHT22;1640;48.504;9.224;2023-01-30T08:46:42;2.20;73.10
3256;DHT22;1640;48.504;9.224;2023-01-30T08:49:10;2.10;72.10
3256;DHT22;1640;48.504;9.224;2023-01-30T08:51:37;2.00;71.90
3256;DHT22;1640;48.504;9.224;2023-01-30T08:54:05;2.20;59.60
3256;DHT22;1640;48.504;9.224;2023-01-30T08:56:33;2.20;70.30
3256;DHT22;1640;48.504;9.224;2023-01-30T08:59:01;2.30;69.90
3256;DHT22;1640;48.504;9.224;2023-01-30T09:01:30;2.40;71.20
3256;DHT22;1640;48.504;9.224;2023-01-30T09:03:57;2.50;71.90
3256;DHT22;1640;48.504;9.224;2023-01-30T09:06:25;2.60;72.80
3256;DHT22;1640;48.504;9.224;2023-01-30T09:08:52;2.60;71.60
3256;DHT22;1640;48.504;9.224;2023-01-30T09:11:20;2.60;73.10
3256;DHT22;1640;48.504;9.224;2023-01-30T09:13:47;2.40;70.80
3256;DHT22;1640;48.504;9.224;2023-01-30T09:16:14;2.40;69.50
3256;DHT22;1640;48.504;9.224;2023-01-30T09:18:44;2.40;66.70
3256;DHT22;1640;48.504;9.224;2023-01-30T09:21:12;2.40;66.50
3256;DHT22;1640;48.504;9.224;2023-01-30T09:23:40;2.40;63.30
3256;DHT22;1640;48.504;9.224;2023-01-30T09:26:07;2.30;64.00
3256;DHT22;1640;48.504;9.224;2023-01-30T09:28:35;2.30;61.30
3256;DHT22;1640;48.504;9.224;2023-01-30T09:31:02;2.20;58.20
3256;DHT22;1640;48.504;9.224;2023-01-30T09:33:30;2.20;58.40
3256;DHT22;1640;48.504;9.224;2023-01-30T09:35:59;2.30;59.20
3256;DHT22;1640;48.504;9.224;2023-01-30T09:38:26;2.30;59.00
3256;DHT22;1640;48.504;9.224;2023-01-30T09:41:09;2.50;61.10
3256;DHT22;1640;48.504;9.224;2023-01-30T09:43:50;2.70;62.20
3256;DHT22;1640;48.504;9.224;2023-01-30T09:46:32;2.90;65.60
3256;DHT22;1640;48.504;9.224;2023-01-30T09:49:13;3.00;67.50
3256;DHT22;1640;48.504;9.224;2023-01-30T09:51:55;3.00;67.90
3256;DHT22;1640;48.504;9.224;2023-01-30T09:54:29;3.00;67.80
3256;DHT22;1640;48.504;9.224;2023-01-30T09:57:09;3.10;69.50
3256;DHT22;1640;48.504;9.224;2023-01-30T09:59:46;3.20;70.20
3256;DHT22;1640;48.504;9.224;2023-01-30T10:02:30;3.40;72.60
3256;DHT22;1640;48.504;9.224;2023-01-30T10:05:00;3.40;72.50
3256;DHT22;1640;48.504;9.224;2023-01-30T10:07:45;3.40;73.10
3256;DHT22;1640;48.504;9.224;2023-01-30T10:10:33;3.50;73.80
3256;DHT22;1640;48.504;9.224;2023-01-30T10:13:05;3.60;72.90
3256;DHT22;1640;48.504;9.224;2023-01-30T10:15:46;3.70;73.20
3256;DHT22;1640;48.504;9.224;2023-01-30T10:18:35;3.80;74.20
3256;DHT22;1640;48.504;9.224;2023-01-30T10:21:15;3.90;73.90
3256;DHT22;1640;48.504;9.224;2023-01-30T10:23:57;4.00;74.10
3256;DHT22;1640;48.504;9.224;2023-01-30T10:26:29;4.00;74.20
3256;DHT22;1640;48.504;9.224;2023-01-30T10:28:59;4.00;73.60
3256;DHT22;1640;48.504;9.224;2023-01-30T10:31:32;3.90;72.60
3256;DHT22;1640;48.504;9.224;2023-01-30T10:34:03;4.00;73.10
3256;DHT22;1640;48.504;9.224;2023-01-30T10:36:35;4.00;72.90
3256;DHT22;1640;48.504;9.224;2023-01-30T10:39:16;4.10;72.50
3256;DHT22;1640;48.504;9.224;2023-01-30T10:41:53;4.20;72.90
3256;DHT22;1640;48.504;9.224;2023-01-30T10:44:22;4.40;73.80
3256;DHT22;1640;48.504;9.224;2023-01-30T10:47:17;4.50;74.50
3256;DHT22;1640;48.504;9.224;2023-01-30T10:49:51;4.50;74.90
3256;DHT22;1640;48.504;9.224;2023-01-30T10:52:32;4.60;73.90
3256;DHT22;1640;48.504;9.224;2023-01-30T10:55:11;4.60;74.10
3256;DHT22;1640;48.504;9.224;2023-01-30T10:57:49;4.60;72.80
3256;DHT22;1640;48.504;9.224;2023-01-30T11:00:24;4.60;71.90
3256;DHT22;1640;48.504;9.224;2023-01-30T11:03:14;4.70;72.30
3256;DHT22;1640;48.504;9.224;2023-01-30T11:05:47;4.70;70.90
3256;DHT22;1640;48.504;9.224;2023-01-30T11:08:19;4.80;71.60
3256;DHT22;1640;48.504;9.224;2023-01-30T11:10:49;4.80;71.60
3256;DHT22;1640;48.504;9.224;2023-01-30T11:13:18;4.90;71.80
3256;DHT22;1640;48.504;9.224;2023-01-30T11:15:49;5.10;67.50
3256;DHT22;1640;48.504;9.224;2023-01-30T11:18:18;5.10;71.90
3256;DHT22;1640;48.504;9.224;2023-01-30T11:20:59;5.00;72.10
3256;DHT22;1640;48.504;9.224;2023-01-30T11:23:31;4.90;70.00
3256;DHT22;1640;48.504;9.224;2023-01-30T11:26:02;4.90;70.20
3256;DHT22;1640;48.504;9.224;2023-01-30T11:28:35;4.90;70.30
3256;DHT22;1640;48.504;9.224;2023-01-30T11:31:16;4.90;69.50
3256;DHT22;1640;48.504;9.224;2023-01-30T11:33:44;4.80;68.60
3256;DHT22;1640;48.504;9.224;2023-01-30T11:36:24;4.80;67.90
3256;DHT22;1640;48.504;9.224;2023-01-30T11:38:57;4.80;66.90
3256;DHT22;1640;48.504;9.224;2023-01-30T11:41:27;4.80;65.90
3256;DHT22;1640;48.504;9.224;2023-01-30T11:44:02;4.90;66.90
3256;DHT22;1640;48.504;9.224;2023-01-30T11:46:32;5.00;66.00
3256;DHT22;1640;48.504;9.224;2023-01-30T11:49:03;5.10;67.00
3256;DHT22;1640;48.504;9.224;2023-01-30T11:51:32;5.20;67.20
3256;DHT22;1640;48.504;9.224;2023-01-30T11:54:02;5.20;66.90
3256;DHT22;1640;48.504;9.224;2023-01-30T11:56:34;5.30;66.90
3256;DHT22;1640;48.504;9.224;2023-01-30T11:59:05;5.30;66.90
3256;DHT22;1640;48.504;9.224;2023-01-30T12:01:35;5.30;66.60
3256;DHT22;1640;48.504;9.224;2023-01-30T12:04:07;5.30;67.30
3256;DHT22;1640;48.504;9.224;2023-01-30T12:06:37;5.20;66.50
3256;DHT22;1640;48.504;9.224;2023-01-30T12:09:05;5.30;67.20
3256;DHT22;1640;48.504;9.224;2023-01-30T12:11:54;5.30;65.60
3256;DHT22;1640;48.504;9.224;2023-01-30T12:14:34;5.20;64.00
3256;DHT22;1640;48.504;9.224;2023-01-30T12:17:13;5.10;63.30
3256;DHT22;1640;48.504;9.224;2023-01-30T12:19:59;5.10;62.60
3256;DHT22;1640;48.504;9.224;2023-01-30T12:22:34;5.20;62.70
3256;DHT22;1640;48.504;9.224;2023-01-30T12:25:11;5.20;61.70
3256;DHT22;1640;48.504;9.224;2023-01-30T12:27:54;5.20;61.60
3256;DHT22;1640;48.504;9.224;2023-01-30T12:30:32;5.30;60.90
3256;DHT22;1640;48.504;9.224;2023-01-30T12:33:03;5.30;59.50
3256;DHT22;1640;48.504;9.224;2023-01-30T12:35:42;5.30;60.00
3256;DHT22;1640;48.504;9.224;2023-01-30T12:38:30;5.30;59.00
3256;DHT22;1640;48.504;9.224;2023-01-30T12:41:07;5.30;55.80
3256;DHT22;1640;48.504;9.224;2023-01-30T12:43:51;5.20;53.60
3256;DHT22;1640;48.504;9.224;2023-01-30T12:46:37;5.00;49.40
3256;DHT22;1640;48.504;9.224;2023-01-30T12:52:27;4.90;44.90
3256;DHT22;1640;48.504;9.224;2023-01-30T12:55:07;4.90;41.00
3256;DHT22;1640;48.504;9.224;2023-01-30T12:57:45;4.90;39.50
3256;DHT22;1640;48.504;9.224;2023-01-30T13:00:32;4.70;35.00
3256;DHT22;1640;48.504;9.224;2023-01-30T13:03:21;4.70;31.40
3256;DHT22;1640;48.504;9.224;2023-01-30T13:05:54;4.80;28.30
3256;DHT22;1640;48.504;9.224;2023-01-30T13:08:55;4.80;29.10
3256;DHT22;1640;48.504;9.224;2023-01-30T13:11:39;5.00;33.80
3256;DHT22;1640;48.504;9.224;2023-01-30T13:14:17;4.90;47.00
3256;DHT22;1640;48.504;9.224;2023-01-30T13:16:59;4.80;46.80
3256;DHT22;1640;48.504;9.224;2023-01-30T13:19:33;4.70;47.90
3256;DHT22;1640;48.504;9.224;2023-01-30T13:22:07;4.60;44.00
3256;DHT22;1640;48.504;9.224;2023-01-30T13:24:46;4.60;43.20
3256;DHT22;1640;48.504;9.224;2023-01-30T13:27:17;4.50;41.00
3256;DHT22;1640;48.504;9.224;2023-01-30T13:29:46;4.50;38.50
3256;DHT22;1640;48.504;9.224;2023-01-30T13:32:24;4.50;36.60
3256;DHT22;1640;48.504;9.224;2023-01-30T13:34:54;4.40;33.50
3256;DHT22;1640;48.504;9.224;2023-01-30T13:37:22;4.50;34.20
3256;DHT22;1640;48.504;9.224;2023-01-30T13:39:52;4.50;34.30
3256;DHT22;1640;48.504;9.224;2023-01-30T13:42:31;4.40;32.60
3256;DHT22;1640;48.504;9.224;2023-01-30T13:45:00;4.40;32.20
3256;DHT22;1640;48.504;9.224;2023-01-30T13:47:41;4.40;30.70
3256;DHT22;1640;48.504;9.224;2023-01-30T13:50:29;4.30;24.80
3256;DHT22;1640;48.504;9.224;2023-01-30T13:53:04;4.20;15.30
3256;DHT22;1640;48.504;9.224;2023-01-30T13:55:39;4.10;8.20
3256;DHT22;1640;48.504;9.224;2023-01-30T13:58:14;4.00;4.40
3256;DHT22;1640;48.504;9.224;2023-01-30T14:00:51;4.00;0.90
3256;DHT22;1640;48.504;9.224;2023-01-30T14:03:29;4.00;99.90
3256;DHT22;1640;48.504;9.224;2023-01-30T14:06:34;4.00;99.90
3256;DHT22;1640;48.504;9.224;2023-01-30T14:09:16;4.00;99.90
3256;DHT22;1640;48.504;9.224;2023-01-30T14:11:47;3.90;0.50
3256;DHT22;1640;48.504;9.224;2023-01-30T14:14:30;3.90;99.90
3256;DHT22;1640;48.504;9.224;2023-01-30T14:17:08;3.90;99.90
3256;DHT22;1640;48.504;9.224;2023-01-30T14:19:47;3.90;99.90
3256;DHT22;1640;48.504;9.224;2023-01-30T14:22:22;4.00;99.90
3256;DHT22;1640;48.504;9.224;2023-01-30T14:34:47;3.90;0.50
3256;DHT22;1640;48.504;9.224;2023-01-30T14:40:34;3.70;99.90
3256;DHT22;1640;48.504;9.224;2023-01-30T14:43:32;3.70;99.90
3256;DHT22;1640;48.504;9.224;2023-01-30T14:46:01;3.60;99.90
3256;DHT22;1640;48.504;9.224;2023-01-30T14:48:32;3.60;99.90
3256;DHT22;1640;48.504;9.224;2023-01-30T14:51:20;3.60;99.90
3256;DHT22;1640;48.504;9.224;2023-01-30T14:53:52;3.80;99.90
3256;DHT22;1640;48.504;9.224;2023-01-30T14:56:36;3.70;2.50
3256;DHT22;1640;48.504;9.224;2023-01-30T14:59:08;3.60;1.40
3256;DHT22;1640;48.504;9.224;2023-01-30T15:02:17;3.50;1.40
3256;DHT22;1640;48.504;9.224;2023-01-30T15:04:50;3.40;99.90
3256;DHT22;1640;48.504;9.224;2023-01-30T15:07:23;3.30;99.90
3256;DHT22;1640;48.504;9.224;2023-01-30T15:09:54;3.30;99.90
3256;DHT22;1640;48.504;9.224;2023-01-30T15:15:38;3.30;99.90
3256;DHT22;1640;48.504;9.224;2023-01-30T15:18:30;3.20;99.90
3256;DHT22;1640;48.504;9.224;2023-01-30T15:21:31;3.10;99.90
3256;DHT22;1640;48.504;9.224;2023-01-30T15:24:40;3.00;99.90
3256;DHT22;1640;48.504;9.224;2023-01-30T15:27:16;3.00;99.90
3256;DHT22;1640;48.504;9.224;2023-01-30T15:30:02;3.00;99.90
3256;DHT22;1640;48.504;9.224;2023-01-30T15:32:32;3.00;99.90
3256;DHT22;1640;48.504;9.224;2023-01-30T15:35:01;3.00;99.90
3256;DHT22;1640;48.504;9.224;2023-01-30T15:37:32;3.00;99.90
3256;DHT22;1640;48.504;9.224;2023-01-30T15:40:26;3.00;99.90
3256;DHT22;1640;48.504;9.224;2023-01-30T15:43:09;3.00;99.90
3256;DHT22;1640;48.504;9.224;2023-01-30T15:45:47;3.00;99.90
3256;DHT22;1640;48.504;9.224;2023-01-30T15:51:21;3.00;99.90
3256;DHT22;1640;48.504;9.224;2023-01-30T15:53:53;2.90;99.90
3256;DHT22;1640;48.504;9.224;2023-01-30T15:56:25;2.90;99.90
3256;DHT22;1640;48.504;9.224;2023-01-30T15:58:55;2.80;99.90
3256;DHT22;1640;48.504;9.224;2023-01-30T16:01:24;2.70;99.90
3256;DHT22;1640;48.504;9.224;2023-01-30T16:03:52;2.70;99.90
3256;DHT22;1640;48.504;9.224;2023-01-30T16:06:22;2.70;99.90
3256;DHT22;1640;48.504;9.224;2023-01-30T16:08:58;2.60;99.90
3256;DHT22;1640;48.504;9.224;2023-01-30T16:11:39;2.60;99.90
3256;DHT22;1640;48.504;9.224;2023-01-30T16:14:11;2.70;99.90
3256;DHT22;1640;48.504;9.224;2023-01-30T16:16:42;2.80;99.90
3256;DHT22;1640;48.504;9.224;2023-01-30T16:19:20;2.80;99.90
3256;DHT22;1640;48.504;9.224;2023-01-30T16:21:48;2.80;99.90
3256;DHT22;1640;48.504;9.224;2023-01-30T16:24:17;2.80;99.90
3256;DHT22;1640;48.504;9.224;2023-01-30T16:26:51;2.70;99.90
3256;DHT22;1640;48.504;9.224;2023-01-30T16:29:22;2.80;99.90
3256;DHT22;1640;48.504;9.224;2023-01-30T16:31:52;2.70;99.90
3256;DHT22;1640;48.504;9.224;2023-01-30T16:34:27;2.70;99.90
3256;DHT22;1640;48.504;9.224;2023-01-30T16:36:56;2.70;99.90
3256;DHT22;1640;48.504;9.224;2023-01-30T16:39:30;2.70;99.90
3256;DHT22;1640;48.504;9.224;2023-01-30T16:42:00;2.70;99.90
3256;DHT22;1640;48.504;9.224;2023-01-30T16:44:29;2.70;99.90
3256;DHT22;1640;48.504;9.224;2023-01-30T16:46:59;2.70;99.90
3256;DHT22;1640;48.504;9.224;2023-01-30T16:49:39;2.80;99.90
3256;DHT22;1640;48.504;9.224;2023-01-30T16:52:16;2.70;99.90
3256;DHT22;1640;48.504;9.224;2023-01-30T16:54:47;2.70;99.90
3256;DHT22;1640;48.504;9.224;2023-01-30T16:57:25;2.70;99.90
3256;DHT22;1640;48.504;9.224;2023-01-30T16:59:54;2.70;99.90
3256;DHT22;1640;48.504;9.224;2023-01-30T17:02:28;2.70;99.90
3256;DHT22;1640;48.504;9.224;2023-01-30T17:05:17;2.60;99.90
3256;DHT22;1640;48.504;9.224;2023-01-30T17:07:46;2.60;99.90
3256;DHT22;1640;48.504;9.224;2023-01-30T17:10:46;2.70;99.90
3256;DHT22;1640;48.504;9.224;2023-01-30T17:13:36;2.70;99.90
3256;DHT22;1640;48.504;9.224;2023-01-30T17:16:26;2.70;99.90
3256;DHT22;1640;48.504;9.224;2023-01-30T17:18:56;2.60;99.90